createdAt,value
2022-12-28T00:02:16.659Z,19.60
2022-12-28T00:04:43.756Z,19.60
2022-12-28T00:07:10.628Z,19.50
2022-12-28T00:09:37.427Z,19.50
2022-12-28T00:12:04.270Z,19.40
2022-12-28T00:14:31.102Z,19.40
2022-12-28T00:16:57.861Z,19.40
2022-12-28T00:19:24.610Z,19.30
2022-12-28T00:21:53.539Z,19.30
2022-12-28T00:24:24.520Z,19.30
2022-12-28T00:26:51.611Z,19.30
2022-12-28T00:29:18.971Z,19.20
2022-12-28T00:31:46.265Z,19.20
2022-12-28T00:34:13.411Z,19.20
2022-12-28T00:37:09.947Z,19.20
2022-12-28T00:39:26.962Z,19.20
2022-12-28T00:41:53.740Z,19.30
2022-12-28T00:44:20.474Z,19.60
2022-12-28T00:46:47.636Z,19.90
2022-12-28T00:49:14.419Z,20.10
2022-12-28T00:51:41.209Z,20.20
2022-12-28T00:54:08.072Z,20.40
2022-12-28T00:56:34.986Z,20.50
2022-12-28T00:59:01.817Z,20.50
2022-12-28T01:01:28.910Z,20.40
2022-12-28T01:03:56.990Z,20.30
2022-12-28T01:06:23.921Z,20.00
2022-12-28T01:09:00.859Z,19.90
2022-12-28T01:11:37.247Z,19.80
2022-12-28T01:14:03.999Z,19.70
2022-12-28T01:16:32.701Z,19.60
2022-12-28T01:19:00.998Z,19.50
2022-12-28T01:21:29.526Z,19.50
2022-12-28T01:24:00.523Z,19.40
2022-12-28T01:26:28.029Z,19.40
2022-12-28T01:28:55.116Z,19.40
2022-12-28T01:31:22.042Z,19.30
2022-12-28T01:33:49.136Z,19.30
2022-12-28T01:36:20.500Z,19.30
2022-12-28T01:38:47.461Z,19.20
2022-12-28T01:41:15.626Z,19.20
2022-12-28T01:43:43.760Z,19.20
2022-12-28T01:46:12.492Z,19.20
2022-12-28T01:48:45.269Z,19.10
2022-12-28T01:51:12.059Z,19.10
2022-12-28T01:53:38.797Z,19.10
2022-12-28T01:56:05.702Z,19.10
2022-12-28T01:58:33.119Z,19.10
2022-12-28T02:00:59.917Z,19.00
2022-12-28T02:03:27.639Z,19.00
2022-12-28T02:05:55.933Z,19.00
2022-12-28T02:08:41.480Z,19.00
2022-12-28T02:11:11.306Z,18.90
2022-12-28T02:13:38.775Z,18.90
2022-12-28T02:16:05.947Z,19.00
2022-12-28T02:18:32.733Z,18.90
2022-12-28T02:21:05.330Z,18.90
2022-12-28T02:23:44.377Z,18.90
2022-12-28T02:26:30.602Z,18.90
2022-12-28T02:29:09.417Z,18.90
2022-12-28T02:31:40.771Z,18.90
2022-12-28T02:34:07.458Z,18.80
2022-12-28T02:36:38.680Z,18.90
2022-12-28T02:39:08.857Z,19.00
2022-12-28T02:41:36.521Z,19.30
2022-12-28T02:44:03.425Z,19.50
2022-12-28T02:46:50.006Z,19.70
2022-12-28T02:49:38.307Z,19.90
2022-12-28T02:52:05.004Z,20.10
2022-12-28T02:55:15.739Z,20.20
2022-12-28T02:57:57.765Z,20.20
2022-12-28T03:00:25.987Z,20.20
2022-12-28T03:03:15.989Z,19.90
2022-12-28T03:06:01.593Z,19.80
2022-12-28T03:08:43.495Z,19.60
2022-12-28T03:11:18.999Z,19.50
2022-12-28T03:14:17.864Z,19.40
2022-12-28T03:17:06.048Z,19.30
2022-12-28T03:19:55.415Z,19.30
2022-12-28T03:22:41.466Z,19.20
2022-12-28T03:25:31.656Z,19.20
2022-12-28T03:28:17.379Z,19.10
2022-12-28T03:31:03.964Z,19.10
2022-12-28T03:33:31.178Z,19.10
2022-12-28T03:36:11.152Z,19.00
2022-12-28T03:38:42.802Z,19.00
2022-12-28T03:41:12.075Z,19.00
2022-12-28T03:43:41.783Z,18.90
2022-12-28T03:46:23.817Z,19.00
2022-12-28T03:48:51.918Z,18.90
2022-12-28T03:51:21.134Z,18.90
2022-12-28T03:53:48.272Z,18.90
2022-12-28T03:56:16.280Z,18.90
2022-12-28T03:58:43.035Z,18.80
2022-12-28T04:01:09.976Z,18.80
2022-12-28T04:03:36.930Z,18.80
2022-12-28T04:06:03.835Z,18.80
2022-12-28T04:08:31.447Z,18.80
2022-12-28T04:11:01.484Z,18.80
2022-12-28T04:13:31.857Z,18.80
2022-12-28T04:16:02.573Z,19.00
2022-12-28T04:18:30.668Z,19.20
2022-12-28T04:20:57.494Z,19.50
2022-12-28T04:23:24.248Z,19.70
2022-12-28T04:26:04.350Z,19.90
2022-12-28T04:28:31.847Z,20.10
2022-12-28T04:30:59.306Z,20.20
2022-12-28T04:33:26.576Z,20.20
2022-12-28T04:35:53.428Z,20.20
2022-12-28T04:38:20.787Z,20.10
2022-12-28T04:40:47.788Z,19.90
2022-12-28T04:43:14.544Z,19.70
2022-12-28T04:45:41.255Z,19.50
2022-12-28T04:48:08.050Z,19.40
2022-12-28T04:50:36.211Z,19.40
2022-12-28T04:53:02.910Z,19.30
2022-12-28T04:55:32.152Z,19.20
2022-12-28T04:58:00.427Z,19.20
2022-12-28T05:00:27.263Z,19.10
2022-12-28T05:02:54.128Z,19.10
2022-12-28T05:05:20.892Z,19.00
2022-12-28T05:07:47.644Z,19.00
2022-12-28T05:10:14.551Z,19.00
2022-12-28T05:12:41.353Z,19.00
2022-12-28T05:15:08.344Z,18.90
2022-12-28T05:17:35.186Z,18.90
2022-12-28T05:20:02.123Z,18.90
2022-12-28T05:22:28.864Z,18.90
2022-12-28T05:24:55.599Z,18.90
2022-12-28T05:27:22.379Z,18.80
2022-12-28T05:29:49.151Z,18.80
2022-12-28T05:32:16.109Z,18.80
2022-12-28T05:34:42.907Z,18.80
2022-12-28T05:37:09.726Z,18.70
2022-12-28T05:39:36.552Z,18.70
2022-12-28T05:42:03.795Z,18.70
2022-12-28T05:44:30.957Z,18.70
2022-12-28T05:46:57.908Z,18.70
2022-12-28T05:49:24.668Z,19.00
2022-12-28T05:51:54.082Z,19.20
2022-12-28T05:54:20.857Z,19.50
2022-12-28T05:56:50.168Z,19.70
2022-12-28T05:59:16.920Z,19.80
2022-12-28T06:01:44.542Z,20.00
2022-12-28T06:04:16.125Z,20.10
2022-12-28T06:06:43.240Z,20.20
2022-12-28T06:09:10.127Z,20.30
2022-12-28T06:11:36.897Z,20.20
2022-12-28T06:14:05.941Z,20.00
2022-12-28T06:16:34.223Z,19.80
2022-12-28T06:19:04.128Z,19.60
2022-12-28T06:21:32.033Z,19.50
2022-12-28T06:23:59.561Z,19.40
2022-12-28T06:26:27.203Z,19.30
2022-12-28T06:28:54.049Z,19.20
2022-12-28T06:31:22.266Z,19.20
2022-12-28T06:33:49.959Z,19.10
2022-12-28T06:36:20.687Z,19.10
2022-12-28T06:38:48.773Z,19.00
2022-12-28T06:41:16.140Z,19.00
2022-12-28T06:43:43.425Z,19.00
2022-12-28T06:46:11.162Z,18.90
2022-12-28T06:48:38.178Z,18.90
2022-12-28T06:51:10.503Z,18.90
2022-12-28T06:53:38.006Z,18.80
2022-12-28T06:56:10.395Z,18.80
2022-12-28T06:58:37.226Z,18.80
2022-12-28T07:01:12.511Z,18.80
2022-12-28T07:03:39.422Z,18.80
2022-12-28T07:06:06.795Z,18.80
2022-12-28T07:08:33.896Z,18.80
2022-12-28T07:11:08.616Z,18.80
2022-12-28T07:13:35.660Z,19.00
2022-12-28T07:16:03.764Z,19.30
2022-12-28T07:18:30.879Z,19.70
2022-12-28T07:21:05.513Z,20.00
2022-12-28T07:23:33.153Z,20.20
2022-12-28T07:26:04.817Z,20.40
2022-12-28T07:28:31.563Z,20.60
2022-12-28T07:30:58.472Z,20.60
2022-12-28T07:33:25.216Z,20.80
2022-12-28T07:35:51.928Z,20.90
2022-12-28T07:38:21.537Z,20.90
2022-12-28T07:40:48.561Z,21.00
2022-12-28T07:43:15.305Z,20.90
2022-12-28T07:45:42.144Z,21.00
2022-12-28T07:48:08.941Z,20.90
2022-12-28T07:50:37.923Z,21.00
2022-12-28T07:53:05.200Z,21.00
2022-12-28T07:55:32.364Z,21.00
2022-12-28T07:57:59.172Z,21.00
2022-12-28T08:00:26.465Z,21.10
2022-12-28T08:02:55.171Z,21.00
2022-12-28T08:05:21.863Z,21.10
2022-12-28T08:07:48.676Z,21.20
2022-12-28T08:10:15.540Z,21.20
2022-12-28T08:12:42.267Z,21.10
2022-12-28T08:15:09.338Z,21.20
2022-12-28T08:17:37.084Z,21.20
2022-12-28T08:20:03.949Z,21.20
2022-12-28T08:22:30.722Z,21.30
2022-12-28T08:24:57.453Z,21.30
2022-12-28T08:27:24.185Z,21.30
2022-12-28T08:29:50.999Z,21.30
2022-12-28T08:32:17.783Z,21.40
2022-12-28T08:34:44.568Z,21.30
2022-12-28T08:37:11.399Z,21.30
2022-12-28T08:39:38.159Z,21.40
2022-12-28T08:42:04.957Z,21.40
2022-12-28T08:44:31.767Z,21.30
2022-12-28T08:46:58.618Z,21.20
2022-12-28T08:49:25.383Z,21.20
2022-12-28T08:51:52.707Z,21.10
2022-12-28T08:54:19.463Z,20.90
2022-12-28T08:56:46.280Z,20.40
2022-12-28T08:59:14.392Z,20.00
2022-12-28T09:01:44.559Z,19.80
2022-12-28T09:04:16.465Z,19.70
2022-12-28T09:06:43.291Z,19.90
2022-12-28T09:09:12.056Z,20.30
2022-12-28T09:11:39.304Z,20.60
2022-12-28T09:14:07.404Z,20.80
2022-12-28T09:16:34.576Z,20.90
2022-12-28T09:21:29.797Z,20.90
2022-12-28T09:23:56.579Z,21.10
2022-12-28T09:26:24.798Z,21.20
2022-12-28T09:28:55.747Z,21.30
2022-12-28T09:31:23.601Z,21.30
2022-12-28T09:36:49.102Z,21.40
2022-12-28T09:39:17.592Z,21.50
2022-12-28T09:41:45.233Z,21.40
2022-12-28T09:44:18.108Z,21.50
2022-12-28T09:46:50.412Z,21.50
2022-12-28T09:49:18.078Z,21.40
2022-12-28T09:51:53.885Z,21.30
2022-12-28T09:54:20.883Z,20.90
2022-12-28T09:56:48.552Z,20.50
2022-12-28T09:59:18.356Z,20.30
2022-12-28T10:01:46.306Z,20.00
2022-12-28T10:04:13.328Z,20.00
2022-12-28T10:06:41.061Z,20.30
2022-12-28T10:09:12.345Z,20.80
2022-12-28T10:11:43.742Z,21.10
2022-12-28T10:14:20.991Z,21.40
2022-12-28T10:16:48.945Z,21.40
2022-12-28T10:19:21.145Z,21.50
2022-12-28T10:21:50.577Z,21.60
2022-12-28T10:24:33.273Z,21.60
2022-12-28T10:27:01.574Z,21.60
2022-12-28T10:29:31.279Z,21.60
2022-12-28T10:32:00.176Z,21.40
2022-12-28T10:34:33.560Z,20.70
2022-12-28T10:37:05.050Z,19.90
2022-12-28T10:39:34.834Z,19.90
2022-12-28T10:42:08.166Z,20.00
2022-12-28T10:44:40.144Z,20.50
2022-12-28T10:47:17.980Z,20.80
2022-12-28T10:52:40.675Z,21.20
2022-12-28T10:55:25.963Z,21.30
2022-12-28T10:58:27.336Z,21.40
2022-12-28T11:00:39.760Z,21.40
2022-12-28T11:03:23.839Z,21.30
2022-12-28T11:05:57.307Z,21.30
2022-12-28T11:08:24.348Z,21.00
2022-12-28T11:10:56.582Z,20.70
2022-12-28T11:13:23.301Z,20.50
2022-12-28T11:15:50.140Z,20.30
2022-12-28T11:18:17.823Z,20.20
2022-12-28T11:20:45.814Z,20.10
2022-12-28T11:23:20.278Z,20.00
2022-12-28T11:25:47.604Z,19.90
2022-12-28T11:28:16.392Z,20.00
2022-12-28T11:30:43.679Z,20.30
2022-12-28T11:33:34.519Z,20.60
2022-12-28T11:36:05.580Z,20.90
2022-12-28T11:38:45.672Z,21.20
2022-12-28T11:41:30.149Z,21.30
2022-12-28T11:44:04.781Z,21.50
2022-12-28T11:46:31.616Z,21.50
2022-12-28T11:48:59.651Z,21.50
2022-12-28T11:51:26.575Z,21.50
2022-12-28T11:53:58.170Z,21.40
2022-12-28T11:56:47.646Z,21.30
2022-12-28T11:59:27.653Z,21.10
2022-12-28T12:02:14.383Z,20.80
2022-12-28T12:04:42.866Z,20.50
2022-12-28T12:07:30.569Z,20.40
2022-12-28T12:10:13.178Z,20.20
2022-12-28T12:12:47.675Z,20.10
2022-12-28T12:15:33.264Z,20.10
2022-12-28T12:18:02.439Z,20.10
2022-12-28T12:20:48.072Z,20.50
2022-12-28T12:23:21.551Z,20.70
2022-12-28T12:25:49.479Z,21.00
2022-12-28T12:28:34.377Z,21.10
2022-12-28T12:31:03.108Z,21.20
2022-12-28T12:33:35.540Z,21.40
2022-12-28T12:36:05.340Z,21.50
2022-12-28T12:38:32.369Z,21.40
2022-12-28T12:41:11.201Z,21.20
2022-12-28T12:43:56.010Z,21.10
2022-12-28T12:46:36.028Z,20.20
2022-12-28T12:49:07.892Z,18.40
2022-12-28T12:51:55.351Z,18.40
2022-12-28T12:54:43.639Z,18.90
2022-12-28T12:57:23.023Z,19.50
2022-12-28T13:00:12.120Z,20.10
2022-12-28T13:02:39.270Z,20.70
2022-12-28T13:05:06.364Z,21.20
2022-12-28T13:07:33.576Z,21.40
2022-12-28T13:10:02.443Z,21.60
2022-12-28T13:12:29.368Z,21.70
2022-12-28T13:15:01.101Z,21.80
2022-12-28T13:17:29.134Z,21.80
2022-12-28T13:20:18.522Z,21.90
2022-12-28T13:22:46.034Z,21.90
2022-12-28T13:25:24.712Z,21.80
2022-12-28T13:27:51.889Z,21.70
2022-12-28T13:30:19.757Z,21.50
2022-12-28T13:33:04.320Z,21.20
2022-12-28T13:35:32.685Z,20.90
2022-12-28T13:38:26.093Z,20.70
2022-12-28T13:40:53.904Z,20.60
2022-12-28T13:43:21.001Z,20.60
2022-12-28T13:45:51.806Z,20.50
2022-12-28T13:48:19.487Z,20.50
2022-12-28T13:50:47.311Z,20.50
2022-12-28T13:53:18.301Z,20.80
2022-12-28T13:55:49.207Z,21.10
2022-12-28T13:58:37.989Z,21.30
2022-12-28T14:01:08.231Z,21.50
2022-12-28T14:03:41.407Z,21.70
2022-12-28T14:06:10.432Z,21.90
2022-12-28T14:08:38.126Z,21.90
2022-12-28T14:11:05.450Z,21.90
2022-12-28T14:13:32.615Z,21.80
2022-12-28T14:16:01.166Z,21.70
2022-12-28T14:18:30.202Z,21.50
2022-12-28T14:20:58.301Z,21.30
2022-12-28T14:23:26.723Z,21.00
2022-12-28T14:25:54.568Z,20.80
2022-12-28T14:28:40.142Z,20.80
2022-12-28T14:31:08.286Z,20.70
2022-12-28T14:33:36.788Z,20.70
2022-12-28T14:36:05.474Z,20.60
2022-12-28T14:38:35.115Z,20.50
2022-12-28T14:41:02.638Z,20.50
2022-12-28T14:43:34.014Z,20.60
2022-12-28T14:46:17.711Z,20.80
2022-12-28T14:48:45.497Z,20.90
2022-12-28T14:51:15.435Z,21.20
2022-12-28T14:53:45.282Z,21.40
2022-12-28T14:56:13.851Z,21.40
2022-12-28T14:58:47.890Z,21.50
2022-12-28T15:01:17.620Z,21.60
2022-12-28T15:03:52.249Z,21.60
2022-12-28T15:06:20.519Z,21.80
2022-12-28T15:08:51.075Z,21.90
2022-12-28T15:11:19.484Z,21.80
2022-12-28T15:13:46.605Z,21.80
2022-12-28T15:16:13.977Z,21.70
2022-12-28T15:18:44.941Z,21.50
2022-12-28T15:21:22.031Z,21.30
2022-12-28T15:23:55.263Z,21.10
2022-12-28T15:26:29.336Z,20.90
2022-12-28T15:28:56.068Z,20.80
2022-12-28T15:31:23.198Z,20.70
2022-12-28T15:33:50.032Z,20.60
2022-12-28T15:36:18.448Z,20.50
2022-12-28T15:38:46.063Z,20.50
2022-12-28T15:41:31.703Z,20.50
2022-12-28T15:43:58.457Z,20.70
2022-12-28T15:46:25.268Z,21.00
2022-12-28T15:48:52.278Z,21.10
2022-12-28T15:51:19.080Z,21.20
2022-12-28T15:53:46.016Z,21.40
2022-12-28T15:56:25.972Z,21.50
2022-12-28T15:58:53.396Z,21.60
2022-12-28T16:01:20.384Z,21.70
2022-12-28T16:03:53.576Z,21.80
2022-12-28T16:06:20.844Z,21.80
2022-12-28T16:08:47.622Z,21.80
2022-12-28T16:11:15.689Z,21.90
2022-12-28T16:13:42.540Z,21.80
2022-12-28T16:16:10.864Z,21.70
2022-12-28T16:18:38.015Z,21.40
2022-12-28T16:21:06.898Z,21.10
2022-12-28T16:23:34.683Z,21.00
2022-12-28T16:26:01.857Z,20.90
2022-12-28T16:28:28.863Z,20.80
2022-12-28T16:30:56.573Z,20.70
2022-12-28T16:33:23.601Z,20.60
2022-12-28T16:35:54.553Z,20.60
2022-12-28T16:38:27.481Z,20.60
2022-12-28T16:40:55.690Z,20.60
2022-12-28T16:43:22.762Z,20.90
2022-12-28T16:45:49.834Z,21.20
2022-12-28T16:48:16.943Z,21.50
2022-12-28T16:50:43.927Z,21.70
2022-12-28T16:53:10.786Z,21.80
2022-12-28T16:55:42.349Z,21.90
2022-12-28T16:58:09.728Z,21.80
2022-12-28T17:00:36.500Z,21.80
2022-12-28T17:03:03.414Z,21.80
2022-12-28T17:05:34.688Z,21.70
2022-12-28T17:08:02.088Z,21.60
2022-12-28T17:10:28.912Z,21.40
2022-12-28T17:12:55.999Z,21.20
2022-12-28T17:15:23.246Z,20.90
2022-12-28T17:17:50.283Z,20.80
2022-12-28T17:20:17.227Z,20.70
2022-12-28T17:22:44.029Z,20.60
2022-12-28T17:25:10.834Z,20.50
2022-12-28T17:27:37.664Z,20.60
2022-12-28T17:30:04.743Z,20.90
2022-12-28T17:32:31.480Z,21.00
2022-12-28T17:34:58.236Z,21.30
2022-12-28T17:37:25.114Z,21.30
2022-12-28T17:39:51.860Z,21.30
2022-12-28T17:42:18.645Z,21.40
2022-12-28T17:44:46.089Z,21.50
2022-12-28T17:47:12.816Z,21.60
2022-12-28T17:49:39.550Z,21.70
2022-12-28T17:52:06.359Z,21.70
2022-12-28T17:54:33.296Z,21.70
2022-12-28T17:57:00.401Z,21.80
2022-12-28T17:59:27.353Z,21.70
2022-12-28T18:01:54.290Z,21.60
2022-12-28T18:04:21.181Z,21.40
2022-12-28T18:06:48.003Z,21.20
2022-12-28T18:09:14.759Z,21.00
2022-12-28T18:11:41.500Z,20.90
2022-12-28T18:14:10.395Z,20.80
2022-12-28T18:16:37.243Z,20.70
2022-12-28T18:19:04.049Z,20.50
2022-12-28T18:21:30.937Z,20.10
2022-12-28T18:23:57.812Z,19.80
2022-12-28T18:26:28.702Z,19.60
2022-12-28T18:28:56.017Z,20.10
2022-12-28T18:31:23.321Z,20.70
2022-12-28T18:33:50.099Z,21.10
2022-12-28T18:36:18.360Z,21.30
2022-12-28T18:38:46.129Z,21.60
2022-12-28T18:41:14.824Z,21.60
2022-12-28T18:43:41.839Z,21.80
2022-12-28T18:46:09.096Z,21.90
2022-12-28T18:48:37.854Z,21.90
2022-12-28T18:51:07.018Z,21.80
2022-12-28T18:53:34.337Z,21.60
2022-12-28T18:56:01.045Z,21.40
2022-12-28T18:58:28.791Z,21.00
2022-12-28T19:01:02.997Z,20.80
2022-12-28T19:03:30.175Z,20.60
2022-12-28T19:06:02.540Z,20.50
2022-12-28T19:08:30.962Z,20.50
2022-12-28T19:10:57.728Z,20.70
2022-12-28T19:13:27.812Z,20.80
2022-12-28T19:15:54.679Z,20.90
2022-12-28T19:18:21.476Z,21.10
2022-12-28T19:20:48.259Z,21.20
2022-12-28T19:23:15.114Z,21.30
2022-12-28T19:25:41.869Z,21.30
2022-12-28T19:28:08.684Z,21.30
2022-12-28T19:30:35.560Z,21.40
2022-12-28T19:33:02.389Z,21.40
2022-12-28T19:35:29.183Z,21.40
2022-12-28T19:37:56.044Z,21.50
2022-12-28T19:40:22.849Z,21.50
2022-12-28T19:42:49.565Z,21.50
2022-12-28T19:45:18.228Z,21.50
2022-12-28T19:47:44.960Z,21.40
2022-12-28T19:50:11.764Z,21.20
2022-12-28T19:52:38.683Z,21.00
2022-12-28T19:55:05.658Z,20.70
2022-12-28T19:57:32.382Z,20.50
2022-12-28T19:59:59.227Z,20.40
2022-12-28T20:02:26.126Z,20.30
2022-12-28T20:04:54.500Z,20.40
2022-12-28T20:07:21.823Z,20.50
2022-12-28T20:09:51.620Z,20.60
2022-12-28T20:12:22.451Z,20.60
2022-12-28T20:14:49.330Z,20.40
2022-12-28T20:17:16.131Z,20.30
2022-12-28T20:19:42.996Z,20.20
2022-12-28T20:22:09.791Z,20.00
2022-12-28T20:24:36.575Z,19.90
2022-12-28T20:27:03.455Z,19.90
2022-12-28T20:29:30.394Z,19.80
2022-12-28T20:31:57.184Z,19.80
2022-12-28T20:34:24.200Z,19.80
2022-12-28T20:36:51.191Z,19.80
2022-12-28T20:39:18.051Z,19.70
2022-12-28T20:42:03.613Z,19.70
2022-12-28T20:44:32.417Z,19.70
2022-12-28T20:46:59.697Z,19.60
2022-12-28T20:49:27.177Z,19.60
2022-12-28T20:51:53.993Z,19.60
2022-12-28T20:54:21.329Z,19.60
2022-12-28T20:56:54.229Z,19.60
2022-12-28T20:59:22.748Z,19.50
2022-12-28T21:01:49.586Z,19.50
2022-12-28T21:04:16.657Z,19.50
2022-12-28T21:06:43.462Z,19.50
2022-12-28T21:09:10.320Z,19.40
2022-12-28T21:11:37.075Z,19.40
2022-12-28T21:14:03.843Z,19.30
2022-12-28T21:16:30.721Z,19.40
2022-12-28T21:18:57.511Z,19.30
2022-12-28T21:21:24.258Z,19.30
2022-12-28T21:23:52.599Z,19.30
2022-12-28T21:26:19.955Z,19.30
2022-12-28T21:28:47.263Z,19.30
2022-12-28T21:31:20.257Z,19.20
2022-12-28T21:33:47.058Z,19.20
2022-12-28T21:36:17.824Z,19.20
2022-12-28T21:38:45.376Z,19.20
2022-12-28T21:41:37.572Z,19.20
2022-12-28T21:44:07.948Z,19.10
2022-12-28T21:46:34.857Z,19.10
2022-12-28T21:49:03.564Z,19.10
2022-12-28T21:51:37.557Z,19.10
2022-12-28T21:54:06.591Z,19.10
2022-12-28T21:56:34.917Z,19.10
2022-12-28T21:59:01.964Z,19.10
2022-12-28T22:01:47.104Z,19.00
2022-12-28T22:04:36.661Z,19.00
2022-12-28T22:07:04.252Z,19.00
2022-12-28T22:09:49.338Z,19.00
2022-12-28T22:12:34.649Z,19.00
2022-12-28T22:15:21.540Z,19.00
2022-12-28T22:17:48.293Z,19.00
2022-12-28T22:20:15.688Z,19.00
2022-12-28T22:22:42.899Z,19.00
2022-12-28T22:25:10.664Z,18.90
2022-12-28T22:27:37.657Z,18.90
2022-12-28T22:30:04.759Z,18.90
2022-12-28T22:32:31.587Z,18.90
2022-12-28T22:34:58.330Z,18.90
2022-12-28T22:37:25.220Z,18.80
2022-12-28T22:39:51.955Z,18.80
2022-12-28T22:42:18.695Z,18.80
2022-12-28T22:44:45.493Z,18.80
2022-12-28T22:47:12.256Z,18.80
2022-12-28T22:49:38.977Z,18.80
2022-12-28T22:52:05.848Z,18.80
2022-12-28T22:54:32.720Z,18.80
2022-12-28T22:56:59.480Z,18.80
2022-12-28T22:59:26.281Z,18.80
2022-12-28T23:01:53.669Z,18.80
2022-12-28T23:04:20.833Z,18.70
2022-12-28T23:06:47.679Z,18.70
2022-12-28T23:09:14.540Z,18.70
2022-12-28T23:11:41.439Z,18.70
2022-12-28T23:14:43.209Z,18.70
2022-12-28T23:17:12.301Z,18.70
2022-12-28T23:19:57.657Z,18.70
2022-12-28T23:22:44.702Z,18.70
2022-12-28T23:25:31.121Z,18.70
2022-12-28T23:27:59.525Z,18.60
2022-12-28T23:30:26.986Z,18.60
2022-12-28T23:32:54.433Z,18.60
2022-12-28T23:35:22.060Z,18.60
2022-12-28T23:37:48.921Z,18.60
2022-12-28T23:40:16.507Z,18.60
2022-12-28T23:42:43.636Z,18.60
2022-12-28T23:45:12.353Z,18.50
2022-12-28T23:47:39.699Z,18.60
2022-12-28T23:50:06.880Z,18.50
2022-12-28T23:52:33.642Z,18.50
2022-12-28T23:55:02.454Z,18.50
2022-12-28T23:57:29.263Z,18.50
2022-12-28T23:59:56.047Z,18.50
